createdAt,value
2022-12-24T00:02:16.586Z,13.70
2022-12-24T00:04:43.296Z,13.40
2022-12-24T00:07:09.955Z,13.30
2022-12-24T00:09:36.630Z,13.70
2022-12-24T00:12:03.853Z,13.50
2022-12-24T00:14:30.528Z,13.40
2022-12-24T00:16:57.258Z,13.60
2022-12-24T00:19:23.982Z,13.40
2022-12-24T00:21:50.668Z,13.20
2022-12-24T00:24:17.346Z,13.40
2022-12-24T00:26:44.047Z,13.20
2022-12-24T00:29:11.897Z,13.20
2022-12-24T00:31:38.569Z,13.30
2022-12-24T00:34:05.272Z,13.20
2022-12-24T00:36:31.960Z,13.50
2022-12-24T00:38:58.633Z,13.30
2022-12-24T00:41:25.827Z,13.30
2022-12-24T00:43:55.909Z,13.20
2022-12-24T00:46:24.076Z,13.40
2022-12-24T00:48:50.841Z,13.20
2022-12-24T00:51:17.604Z,13.10
2022-12-24T00:53:44.330Z,13.10
2022-12-24T00:56:11.249Z,13.00
2022-12-24T00:58:38.032Z,13.00
2022-12-24T01:01:05.071Z,13.10
2022-12-24T01:03:38.339Z,13.10
2022-12-24T01:06:17.104Z,13.10
2022-12-24T01:08:44.046Z,12.80
2022-12-24T01:11:12.352Z,13.00
2022-12-24T01:13:39.479Z,13.00
2022-12-24T01:16:18.427Z,13.10
2022-12-24T01:18:45.189Z,12.90
2022-12-24T01:21:12.252Z,13.40
2022-12-24T01:23:39.027Z,13.00
2022-12-24T01:26:05.692Z,13.40
2022-12-24T01:28:33.024Z,13.00
2022-12-24T01:30:59.799Z,13.20
2022-12-24T01:33:30.140Z,13.10
2022-12-24T01:35:56.870Z,12.90
2022-12-24T01:38:23.552Z,12.80
2022-12-24T01:41:09.083Z,12.70
2022-12-24T01:43:35.787Z,12.90
2022-12-24T01:46:05.201Z,12.70
2022-12-24T01:48:38.491Z,12.60
2022-12-24T01:51:23.785Z,12.60
2022-12-24T01:54:07.005Z,12.70
2022-12-24T01:56:35.199Z,12.60
2022-12-24T01:59:05.943Z,12.50
2022-12-24T02:01:32.727Z,12.70
2022-12-24T02:03:59.769Z,12.50
2022-12-24T02:06:27.270Z,12.50
2022-12-24T02:08:55.277Z,12.50
2022-12-24T02:11:22.709Z,12.70
2022-12-24T02:13:52.007Z,12.60
2022-12-24T02:16:40.415Z,12.50
2022-12-24T02:19:31.396Z,12.60
2022-12-24T02:22:14.441Z,12.50
2022-12-24T02:25:15.259Z,12.50
2022-12-24T02:27:48.355Z,12.50
2022-12-24T02:30:20.063Z,12.60
2022-12-24T02:32:58.905Z,12.60
2022-12-24T02:35:40.972Z,12.60
2022-12-24T02:38:26.727Z,12.50
2022-12-24T02:41:03.510Z,12.50
2022-12-24T02:43:35.737Z,12.50
2022-12-24T02:46:07.807Z,12.50
2022-12-24T02:48:36.374Z,12.50
2022-12-24T02:54:15.984Z,12.30
2022-12-24T03:00:34.759Z,12.20
2022-12-24T03:03:32.067Z,12.30
2022-12-24T03:13:00.727Z,11.90
2022-12-24T03:18:35.633Z,11.90
2022-12-24T03:22:22.079Z,11.90
2022-12-24T03:25:16.557Z,11.90
2022-12-24T03:27:56.875Z,11.90
2022-12-24T03:30:27.028Z,12.00
2022-12-24T03:32:53.749Z,11.90
2022-12-24T03:35:20.520Z,11.80
2022-12-24T03:37:47.199Z,11.90
2022-12-24T03:40:14.059Z,11.90
2022-12-24T03:42:40.726Z,11.80
2022-12-24T03:45:08.064Z,11.80
2022-12-24T03:47:34.744Z,11.70
2022-12-24T03:50:01.395Z,11.80
2022-12-24T03:52:28.294Z,11.80
2022-12-24T03:54:54.946Z,11.90
2022-12-24T03:57:21.627Z,11.80
2022-12-24T03:59:48.330Z,11.90
2022-12-24T04:02:15.192Z,12.00
2022-12-24T04:04:42.049Z,11.80
2022-12-24T04:07:08.802Z,11.70
2022-12-24T04:09:35.543Z,11.80
2022-12-24T04:12:02.633Z,11.80
2022-12-24T04:14:29.333Z,11.80
2022-12-24T04:16:56.058Z,11.80
2022-12-24T04:19:22.772Z,12.00
2022-12-24T04:21:49.473Z,11.90
2022-12-24T04:24:16.146Z,12.20
2022-12-24T04:26:42.841Z,12.20
2022-12-24T04:29:09.598Z,12.30
2022-12-24T04:31:36.387Z,12.20
2022-12-24T04:34:03.231Z,12.00
2022-12-24T04:36:29.900Z,12.00
2022-12-24T04:38:56.593Z,11.90
2022-12-24T04:41:25.076Z,12.10
2022-12-24T04:43:53.312Z,12.10
2022-12-24T04:46:23.085Z,12.10
2022-12-24T04:48:51.468Z,12.10
2022-12-24T04:51:18.270Z,12.30
2022-12-24T04:53:44.991Z,11.90
2022-12-24T04:56:37.731Z,11.90
2022-12-24T04:59:08.704Z,11.90
2022-12-24T05:01:38.247Z,11.90
2022-12-24T05:04:14.108Z,12.00
2022-12-24T05:06:45.967Z,12.00
2022-12-24T05:09:20.557Z,11.70
2022-12-24T05:11:51.406Z,11.90
2022-12-24T05:14:22.030Z,12.00
2022-12-24T05:16:53.434Z,11.90
2022-12-24T05:19:23.609Z,12.00
2022-12-24T05:22:11.062Z,11.90
2022-12-24T05:24:56.286Z,11.90
2022-12-24T05:27:23.141Z,11.80
2022-12-24T05:29:49.888Z,11.90
2022-12-24T05:32:16.675Z,11.80
2022-12-24T05:34:43.867Z,11.90
2022-12-24T05:37:10.818Z,12.00
2022-12-24T05:39:37.498Z,11.80
2022-12-24T05:42:04.496Z,11.90
2022-12-24T05:44:31.407Z,11.70
2022-12-24T05:46:58.440Z,11.90
2022-12-24T05:49:25.105Z,11.80
2022-12-24T05:51:51.759Z,12.10
2022-12-24T05:54:18.484Z,12.50
2022-12-24T05:56:45.199Z,12.10
2022-12-24T05:59:11.871Z,11.80
2022-12-24T06:01:38.664Z,11.90
2022-12-24T06:04:05.449Z,12.00
2022-12-24T06:06:32.170Z,11.90
2022-12-24T06:08:58.991Z,11.70
2022-12-24T06:11:27.980Z,11.90
2022-12-24T06:13:55.437Z,12.10
2022-12-24T06:16:22.905Z,11.70
2022-12-24T06:18:49.825Z,11.80
2022-12-24T06:21:17.548Z,11.70
2022-12-24T06:23:44.943Z,11.90
2022-12-24T06:26:13.463Z,11.80
2022-12-24T06:28:40.164Z,11.70
2022-12-24T06:31:11.723Z,11.80
2022-12-24T06:33:38.580Z,11.70
2022-12-24T06:36:37.707Z,11.60
2022-12-24T06:39:04.381Z,11.80
2022-12-24T06:41:31.059Z,11.90
2022-12-24T06:43:57.734Z,11.60
2022-12-24T06:46:24.398Z,11.50
2022-12-24T06:48:51.197Z,11.40
2022-12-24T06:51:19.786Z,11.50
2022-12-24T06:53:47.750Z,11.40
2022-12-24T06:56:14.599Z,11.50
2022-12-24T06:58:41.462Z,11.40
2022-12-24T07:01:10.387Z,11.40
2022-12-24T07:03:37.260Z,11.60
2022-12-24T07:06:04.155Z,11.50
2022-12-24T07:08:33.993Z,11.50
2022-12-24T07:11:00.711Z,11.60
2022-12-24T07:13:27.496Z,11.50
2022-12-24T07:16:01.873Z,11.60
2022-12-24T07:18:28.914Z,11.40
2022-12-24T07:20:55.839Z,11.40
2022-12-24T07:23:22.764Z,11.50
2022-12-24T07:25:49.446Z,11.60
2022-12-24T07:28:16.159Z,11.50
2022-12-24T07:30:42.876Z,11.50
2022-12-24T07:33:09.545Z,11.40
2022-12-24T07:35:36.260Z,11.50
2022-12-24T07:38:03.051Z,11.50
2022-12-24T07:40:29.707Z,11.50
2022-12-24T07:42:56.385Z,11.40
2022-12-24T07:45:23.091Z,11.60
2022-12-24T07:47:49.766Z,11.50
2022-12-24T07:50:16.451Z,11.60
2022-12-24T07:52:43.165Z,11.40
2022-12-24T07:55:09.942Z,11.30
2022-12-24T07:57:36.611Z,11.60
2022-12-24T08:00:04.366Z,11.60
2022-12-24T08:02:31.375Z,11.60
2022-12-24T08:04:58.276Z,11.50
2022-12-24T08:07:24.951Z,11.50
2022-12-24T08:09:51.608Z,11.50
2022-12-24T08:12:18.306Z,11.60
2022-12-24T08:14:44.993Z,11.50
2022-12-24T08:17:11.690Z,11.50
2022-12-24T08:19:38.371Z,11.50
2022-12-24T08:22:05.035Z,11.50
2022-12-24T08:24:31.752Z,11.50
2022-12-24T08:26:58.420Z,11.50
2022-12-24T08:29:25.074Z,11.50
2022-12-24T08:31:51.883Z,12.00
2022-12-24T08:34:18.627Z,11.60
2022-12-24T08:36:45.293Z,11.50
2022-12-24T08:39:11.964Z,11.70
2022-12-24T08:41:38.643Z,11.80
2022-12-24T08:44:05.306Z,11.60
2022-12-24T08:46:32.133Z,11.70
2022-12-24T08:48:58.817Z,12.20
2022-12-24T08:51:25.494Z,11.90
2022-12-24T08:53:52.243Z,11.90
2022-12-24T08:56:18.992Z,11.90
2022-12-24T08:58:45.681Z,11.90
2022-12-24T09:01:17.834Z,12.00
2022-12-24T09:03:45.019Z,12.10
2022-12-24T09:06:12.082Z,12.20
2022-12-24T09:08:39.105Z,11.90
2022-12-24T09:11:10.761Z,12.00
2022-12-24T09:13:37.584Z,12.10
2022-12-24T09:16:04.584Z,12.10
2022-12-24T09:18:31.564Z,12.00
2022-12-24T09:21:00.257Z,12.50
2022-12-24T09:23:27.221Z,12.50
2022-12-24T09:25:53.889Z,12.30
2022-12-24T09:28:21.053Z,12.10
2022-12-24T09:31:01.439Z,12.10
2022-12-24T09:33:29.837Z,12.40
2022-12-24T09:35:56.561Z,12.40
2022-12-24T09:38:24.010Z,12.30
2022-12-24T09:40:51.124Z,12.50
2022-12-24T09:43:23.148Z,12.50
2022-12-24T09:46:06.995Z,12.50
2022-12-24T09:48:36.656Z,12.60
2022-12-24T09:51:10.451Z,12.40
2022-12-24T09:53:43.956Z,12.50
2022-12-24T09:56:17.661Z,12.60
2022-12-24T09:58:57.853Z,12.60
2022-12-24T10:01:24.703Z,12.50
2022-12-24T10:03:51.955Z,12.40
2022-12-24T10:06:26.967Z,12.80
2022-12-24T10:09:14.097Z,12.40
2022-12-24T10:12:02.535Z,12.20
2022-12-24T10:14:59.415Z,12.50
2022-12-24T10:17:44.355Z,12.60
2022-12-24T10:20:29.254Z,12.50
2022-12-24T10:22:58.972Z,12.50
2022-12-24T10:25:44.196Z,12.50
2022-12-24T10:28:20.098Z,12.30
2022-12-24T10:30:49.355Z,12.50
2022-12-24T10:33:20.524Z,12.80
2022-12-24T10:35:51.003Z,13.00
2022-12-24T10:38:17.713Z,12.80
2022-12-24T10:40:46.540Z,12.70
2022-12-24T10:43:16.391Z,12.80
2022-12-24T10:45:47.254Z,12.90
2022-12-24T10:48:22.860Z,12.90
2022-12-24T10:51:07.609Z,13.00
2022-12-24T10:53:44.139Z,12.80
2022-12-24T10:56:13.379Z,12.90
2022-12-24T10:58:45.310Z,12.90
2022-12-24T11:01:12.335Z,12.80
2022-12-24T11:03:39.761Z,12.80
2022-12-24T11:06:08.043Z,12.90
2022-12-24T11:08:36.913Z,12.90
2022-12-24T11:11:13.629Z,13.30
2022-12-24T11:13:55.142Z,13.10
2022-12-24T11:16:33.663Z,12.90
2022-12-24T11:19:03.277Z,13.40
2022-12-24T11:21:32.634Z,13.10
2022-12-24T11:24:14.166Z,13.30
2022-12-24T11:26:43.048Z,13.20
2022-12-24T11:29:16.410Z,13.10
2022-12-24T11:31:44.205Z,13.40
2022-12-24T11:34:21.821Z,13.30
2022-12-24T11:36:48.609Z,13.50
2022-12-24T11:39:20.113Z,13.20
2022-12-24T11:41:46.923Z,13.30
2022-12-24T11:44:13.735Z,13.00
2022-12-24T11:46:43.408Z,12.90
2022-12-24T11:49:13.098Z,13.20
2022-12-24T11:51:40.989Z,13.10
2022-12-24T11:54:20.240Z,12.90
2022-12-24T11:56:49.337Z,13.20
2022-12-24T11:59:36.773Z,13.00
2022-12-24T12:02:18.395Z,12.90
2022-12-24T12:04:47.821Z,12.90
2022-12-24T12:07:35.268Z,12.90
2022-12-24T12:10:34.475Z,13.00
2022-12-24T12:13:14.877Z,12.80
2022-12-24T12:16:02.545Z,13.20
2022-12-24T12:18:34.475Z,12.90
2022-12-24T12:21:06.051Z,13.20
2022-12-24T12:23:40.804Z,13.50
2022-12-24T12:26:11.003Z,13.10
2022-12-24T12:28:49.737Z,12.90
2022-12-24T12:31:23.818Z,12.80
2022-12-24T12:33:56.824Z,12.60
2022-12-24T12:36:26.922Z,12.90
2022-12-24T12:38:53.607Z,12.90
2022-12-24T12:41:38.394Z,13.10
2022-12-24T12:44:28.436Z,13.10
2022-12-24T12:47:04.591Z,12.90
2022-12-24T12:49:47.145Z,12.60
2022-12-24T12:52:51.293Z,12.70
2022-12-24T12:55:43.100Z,12.70
2022-12-24T12:58:25.728Z,12.90
2022-12-24T13:01:35.548Z,12.90
2022-12-24T13:04:21.409Z,12.90
2022-12-24T13:07:26.044Z,12.50
2022-12-24T13:10:02.308Z,13.10
2022-12-24T13:12:41.223Z,12.70
2022-12-24T13:15:14.779Z,12.90
2022-12-24T13:18:11.308Z,12.80
2022-12-24T13:20:43.118Z,13.30
2022-12-24T13:23:15.650Z,12.90
2022-12-24T13:25:45.191Z,13.40
2022-12-24T13:28:24.023Z,13.20
2022-12-24T13:30:52.626Z,13.10
2022-12-24T13:33:37.785Z,12.90
2022-12-24T13:36:09.199Z,13.50
2022-12-24T13:38:57.068Z,13.40
2022-12-24T13:41:38.834Z,13.80
2022-12-24T13:44:06.395Z,13.70
2022-12-24T13:46:56.743Z,13.20
2022-12-24T13:49:36.597Z,14.10
2022-12-24T13:52:12.300Z,14.10
2022-12-24T13:54:42.680Z,13.10
2022-12-24T13:57:29.589Z,13.50
2022-12-24T14:00:26.755Z,12.90
2022-12-24T14:03:15.390Z,13.30
2022-12-24T14:05:44.826Z,12.70
2022-12-24T14:08:16.533Z,13.50
2022-12-24T14:11:06.979Z,13.20
2022-12-24T14:13:39.804Z,13.10
2022-12-24T14:16:16.216Z,12.90
2022-12-24T14:18:46.640Z,13.20
2022-12-24T14:21:37.609Z,13.00
2022-12-24T14:24:10.761Z,13.00
2022-12-24T14:26:51.488Z,12.60
2022-12-24T14:29:25.377Z,12.80
2022-12-24T14:31:57.114Z,13.10
2022-12-24T14:34:24.044Z,12.80
2022-12-24T14:36:53.108Z,12.70
2022-12-24T14:39:31.412Z,12.90
2022-12-24T14:42:04.470Z,13.20
2022-12-24T14:44:44.205Z,13.70
2022-12-24T14:47:53.007Z,12.80
2022-12-24T14:50:49.980Z,12.90
2022-12-24T14:53:34.154Z,13.40
2022-12-24T14:56:09.916Z,13.30
2022-12-24T14:58:37.002Z,13.10
2022-12-24T15:01:20.423Z,13.50
2022-12-24T15:04:03.162Z,13.70
2022-12-24T15:06:33.650Z,13.30
2022-12-24T15:09:00.654Z,13.00
2022-12-24T15:11:27.630Z,13.20
2022-12-24T15:13:57.532Z,13.00
2022-12-24T15:16:33.266Z,13.60
2022-12-24T15:19:21.243Z,13.50
2022-12-24T15:21:48.000Z,12.90
2022-12-24T15:24:29.221Z,12.70
2022-12-24T15:26:56.240Z,13.00
2022-12-24T15:29:25.885Z,12.90
2022-12-24T15:31:57.322Z,13.10
2022-12-24T15:34:35.838Z,13.30
2022-12-24T15:37:05.363Z,12.90
2022-12-24T15:40:22.911Z,13.10
2022-12-24T15:42:49.911Z,13.40
2022-12-24T15:45:27.573Z,13.50
2022-12-24T15:48:01.960Z,13.60
2022-12-24T15:50:35.786Z,13.20
2022-12-24T15:53:20.017Z,13.30
2022-12-24T15:56:09.912Z,13.20
2022-12-24T15:58:39.490Z,13.40
2022-12-24T16:01:09.785Z,12.90
2022-12-24T16:03:44.691Z,12.80
2022-12-24T16:06:11.771Z,12.70
2022-12-24T16:08:40.273Z,13.00
2022-12-24T16:11:33.816Z,12.60
2022-12-24T16:14:04.534Z,12.50
2022-12-24T16:16:44.257Z,13.10
2022-12-24T16:19:27.694Z,13.00
2022-12-24T16:21:59.307Z,13.20
2022-12-24T16:24:29.920Z,12.80
2022-12-24T16:26:57.706Z,13.00
2022-12-24T16:29:24.673Z,13.10
2022-12-24T16:31:57.604Z,12.80
2022-12-24T16:34:28.009Z,13.10
2022-12-24T16:36:55.479Z,12.50
2022-12-24T16:39:30.718Z,12.90
2022-12-24T16:42:18.879Z,12.70
2022-12-24T16:44:46.893Z,12.80
2022-12-24T16:47:27.837Z,12.50
2022-12-24T16:49:54.668Z,12.80
2022-12-24T16:52:26.243Z,12.10
2022-12-24T16:54:53.176Z,12.40
2022-12-24T16:57:20.558Z,12.70
2022-12-24T16:59:47.334Z,12.70
2022-12-24T17:02:17.065Z,12.60
2022-12-24T17:04:44.724Z,12.70
2022-12-24T17:07:14.072Z,13.00
2022-12-24T17:09:41.060Z,12.80
2022-12-24T17:12:08.043Z,12.30
2022-12-24T17:14:35.195Z,12.60
2022-12-24T17:17:02.028Z,12.40
2022-12-24T17:19:28.785Z,12.40
2022-12-24T17:21:55.608Z,12.50
2022-12-24T17:24:22.467Z,13.20
2022-12-24T17:26:49.278Z,12.60
2022-12-24T17:29:16.045Z,13.20
2022-12-24T17:31:43.072Z,12.80
2022-12-24T17:34:10.068Z,12.90
2022-12-24T17:36:36.820Z,12.80
2022-12-24T17:39:03.812Z,12.70
2022-12-24T17:41:30.570Z,12.50
2022-12-24T17:43:58.921Z,12.60
2022-12-24T17:46:25.864Z,13.00
2022-12-24T17:48:52.930Z,13.00
2022-12-24T17:51:23.183Z,13.00
2022-12-24T17:53:50.541Z,12.70
2022-12-24T17:56:17.874Z,12.80
2022-12-24T17:58:46.480Z,12.60
2022-12-24T18:01:17.812Z,12.70
2022-12-24T18:03:45.863Z,12.40
2022-12-24T18:06:14.319Z,12.20
2022-12-24T18:08:42.815Z,12.10
2022-12-24T18:11:17.266Z,12.30
2022-12-24T18:13:45.239Z,12.20
2022-12-24T18:16:42.746Z,12.20
2022-12-24T18:19:12.068Z,12.80
2022-12-24T18:21:39.754Z,12.40
2022-12-24T18:24:10.611Z,12.70
2022-12-24T18:26:51.610Z,12.20
2022-12-24T18:29:25.877Z,13.10
2022-12-24T18:32:05.779Z,12.70
2022-12-24T18:34:49.250Z,12.80
2022-12-24T18:37:16.021Z,12.70
2022-12-24T18:39:43.970Z,12.60
2022-12-24T18:42:14.491Z,12.90
2022-12-24T18:44:42.104Z,12.80
2022-12-24T18:47:09.209Z,13.20
2022-12-24T18:49:39.069Z,13.10
2022-12-24T18:52:07.947Z,12.50
2022-12-24T18:54:35.280Z,12.40
2022-12-24T18:57:02.036Z,12.60
2022-12-24T18:59:28.883Z,12.60
2022-12-24T19:01:55.929Z,12.50
2022-12-24T19:04:22.846Z,12.60
2022-12-24T19:06:53.328Z,12.80
2022-12-24T19:09:21.488Z,12.40
2022-12-24T19:11:48.799Z,12.20
2022-12-24T19:14:15.594Z,11.90
2022-12-24T19:16:42.520Z,12.10
2022-12-24T19:19:11.156Z,12.00
2022-12-24T19:21:37.988Z,11.90
2022-12-24T19:24:06.445Z,11.90
2022-12-24T19:26:33.183Z,12.00
2022-12-24T19:29:00.086Z,11.80
2022-12-24T19:31:26.977Z,12.10
2022-12-24T19:33:56.629Z,11.90
2022-12-24T19:36:29.869Z,12.20
2022-12-24T19:38:58.521Z,12.00
2022-12-24T19:41:28.590Z,12.00
2022-12-24T19:43:59.172Z,11.90
2022-12-24T19:46:29.371Z,12.00
2022-12-24T19:48:59.234Z,12.00
2022-12-24T19:51:27.923Z,11.90
2022-12-24T19:53:57.133Z,12.60
2022-12-24T19:56:26.401Z,13.00
2022-12-24T19:58:53.749Z,13.10
2022-12-24T20:01:24.016Z,13.10
2022-12-24T20:03:52.822Z,13.50
2022-12-24T20:06:23.031Z,13.70
2022-12-24T20:08:50.218Z,13.70
2022-12-24T20:11:20.213Z,13.80
2022-12-24T20:13:47.126Z,13.40
2022-12-24T20:16:20.661Z,13.60
2022-12-24T20:18:56.045Z,13.70
2022-12-24T20:21:23.794Z,13.30
2022-12-24T20:23:51.887Z,13.10
2022-12-24T20:26:21.682Z,12.80
2022-12-24T20:28:49.274Z,12.40
2022-12-24T20:31:23.258Z,12.90
2022-12-24T20:33:50.206Z,13.10
2022-12-24T20:36:19.617Z,13.10
2022-12-24T20:38:47.523Z,13.20
2022-12-24T20:41:17.441Z,13.00
2022-12-24T20:43:48.203Z,13.40
2022-12-24T20:46:16.623Z,13.30
2022-12-24T20:48:43.909Z,13.60
2022-12-24T20:51:22.895Z,13.40
2022-12-24T20:53:54.410Z,13.50
2022-12-24T20:56:22.028Z,13.50
2022-12-24T20:58:49.028Z,13.30
2022-12-24T21:01:24.333Z,13.50
2022-12-24T21:03:53.562Z,13.20
2022-12-24T21:06:20.829Z,13.30
2022-12-24T21:08:50.304Z,13.60
2022-12-24T21:11:35.854Z,13.70
2022-12-24T21:14:02.932Z,13.50
2022-12-24T21:16:31.625Z,13.50
2022-12-24T21:18:58.894Z,13.10
2022-12-24T21:21:25.757Z,13.10
2022-12-24T21:23:52.667Z,13.40
2022-12-24T21:26:19.573Z,13.30
2022-12-24T21:28:46.389Z,13.40
2022-12-24T21:31:14.575Z,12.90
2022-12-24T21:33:41.958Z,12.40
2022-12-24T21:36:11.826Z,12.50
2022-12-24T21:38:38.944Z,12.90
2022-12-24T21:41:13.056Z,12.90
2022-12-24T21:43:40.316Z,13.10
2022-12-24T21:46:10.739Z,13.10
2022-12-24T21:48:56.987Z,13.30
2022-12-24T21:51:25.919Z,13.30
2022-12-24T21:54:11.235Z,13.60
2022-12-24T21:56:56.889Z,13.40
2022-12-24T21:59:26.793Z,13.40
2022-12-24T22:01:54.785Z,13.40
2022-12-24T22:04:21.805Z,13.50
2022-12-24T22:07:06.743Z,13.60
2022-12-24T22:09:51.736Z,13.30
2022-12-24T22:12:18.727Z,13.00
2022-12-24T22:14:45.545Z,12.70
2022-12-24T22:17:12.328Z,12.60
2022-12-24T22:19:39.095Z,12.80
2022-12-24T22:22:05.849Z,12.60
2022-12-24T22:24:32.580Z,12.40
2022-12-24T22:26:59.353Z,12.40
2022-12-24T22:29:26.075Z,12.50
2022-12-24T22:31:52.849Z,12.60
2022-12-24T22:34:19.854Z,12.30
2022-12-24T22:36:46.594Z,12.50
2022-12-24T22:39:13.414Z,12.60
2022-12-24T22:41:40.154Z,12.30
2022-12-24T22:44:06.927Z,12.10
2022-12-24T22:46:33.759Z,12.70
2022-12-24T22:49:00.547Z,12.50
2022-12-24T22:51:27.295Z,12.40
2022-12-24T22:53:54.132Z,12.30
2022-12-24T22:56:22.812Z,12.40
2022-12-24T22:58:56.547Z,12.50
2022-12-24T23:01:52.496Z,12.30
2022-12-24T23:04:19.567Z,12.70
2022-12-24T23:06:46.312Z,12.50
2022-12-24T23:09:15.789Z,12.80
2022-12-24T23:11:44.554Z,12.60
2022-12-24T23:14:39.080Z,12.80
2022-12-24T23:17:07.389Z,12.70
2022-12-24T23:19:34.247Z,12.60
2022-12-24T23:22:03.159Z,12.60
2022-12-24T23:24:30.532Z,12.50
2022-12-24T23:27:01.264Z,13.00
2022-12-24T23:29:30.324Z,12.60
2022-12-24T23:31:57.680Z,12.70
2022-12-24T23:34:24.907Z,13.10
2022-12-24T23:36:51.700Z,12.80
2022-12-24T23:39:18.684Z,12.80
2022-12-24T23:41:45.416Z,12.80
2022-12-24T23:44:12.162Z,12.40
2022-12-24T23:46:38.955Z,13.20
2022-12-24T23:49:06.148Z,13.00
2022-12-24T23:51:33.003Z,13.00
2022-12-24T23:53:59.787Z,13.10
2022-12-24T23:56:26.571Z,12.80
2022-12-24T23:58:53.498Z,12.80
